BADAN METEOROLOGI KLIMATOLOGI
DAN GEOFISIKA
Stasiun Meterologi Klas I
Frans Kaisiepo Biak
MET/SPECIAL REPORT


MET REPORT WABB 261930Z WIND VRB BTN 030/ AND 240/2KT VIS 10KM CLD FEW 1800FT SCT 10000FT T26 DP25 QNH 1007HPA QFE 1005HPA TREND NOSIG=

MET REPORT WABB 262000Z WIND VRB BTN 230/ AND 040/2KT VIS 10KM CLD FEW 1800FT SCT 10000FT T26 DP25 QNH 1007HPA QFE 1005HPA TREND NOSIG=

MET REPORT WABB 262030Z WIND 150/2KT VIS 10KM CLD FEW 1800FT SCT 10000FT T26 DP25 QNH 1007HPA QFE 1006HPA TREND NOSIG=

SPECIAL REPORT WABB 262037Z WIND VRB BTN 100/ AND 180/2KT VIS 9KM FBL RA CLD FEW 1800FT SCT 10000FT T26 DP25 QNH 1007HPA QFE 1006HPA TREND NOSIG=

MET REPORT WABB 262100Z WIND 040/4KT VRB BTN 230/ AND 040/ VIS 9KM FBL RA CLD SCT 1800FT T26 DP25 QNH 1008HPA QFE 1006HPA TREND NOSIG=

METAR/SPECI


METAR WABB 261930Z VRB02KT 9999 FEW018 SCT100 26/25 Q1007 NOSIG=

METAR WABB 262000Z VRB02KT 9999 FEW018 SCT100 26/25 Q1007 NOSIG=

METAR WABB 262030Z 15002KT 9999 FEW018 SCT100 26/25 Q1007 NOSIG=

SPECI WABB 262037Z VRB02KT 9000 -RA FEW018 SCT100 26/25 Q1007 NOSIG=

METAR WABB 262100Z 04004KT 230V040 9000 -RA SCT018 26/25 Q1008 NOSIG=

TAFOR


TAF WABB 261700Z 2618/2724 31003KT 9999 FEW018=

TAF WABO 261700Z 2618/2718 02004KT 9999 SCT013
TEMPO 2618/2621 5000 -RA BKN013=

TAF WAYE 261700Z 2618/2718 00000KT 6000 SCT009
BECMG 2622/2624 33005KT
TEMPO 2706/2710 3000 RA BKN008=

TAF WABI 261700Z 2618/2718 32005KT 8000 SCT015
TEMPO 2618/2621 3000 -TSRA FEW013CB=

TAF WAYY 261700Z 2618/2718 00000KT 5000 SCT015
BECMG 2700/2702 18005KT 9999=


Stasiun Meteorologi Klas I Frans Kaisiepo Biak
Jl.Moh Yamin
Telp. (0981)25373-22824
PO.Box 132 - Biak 98101
Email : stamet.biak@bmkg.go.id

Layanan 1 x 24 jam
Telp. (0981)21742 (Forecaster Onduty)
WhatsApp (+628114822994)
Email : forecaster.biak@gmail.com

Design by : Eko | Herald
Stasiun Meteorologi Klas I Frans Kaisiepo Biak